Stations météo

réclame
Mon MeteoGroup
Gent/Industry Zo, Pays-Bas (6431): Température de l'air & dewpoint: 15.09.2018 10:00:00 - 21.09.2018 10:00:00 (CEST)Gent/Industry Zo, Pays-Bas (6431): Vitesse du vent & gusts: 15.09.2018 10:00:00 - 21.09.2018 10:00:00 (CEST)Gent/Industry Zo, Pays-Bas (6431): Direction du vent: 15.09.2018 10:00:00 - 21.09.2018 10:00:00 (CEST)Gent/Industry Zo, Pays-Bas (6431): reduced air pressure: 15.09.2018 10:00:00 - 21.09.2018 10:00:00 (CEST)Gent/Industry Zo, Pays-Bas (6431): Ensoleillement: 15.09.2018 10:00:00 - 21.09.2018 10:00:00 (CEST)Gent/Industry Zo, Pays-Bas (6431): Quantités de précipitations: 15.09.2018 10:00:00 - 21.09.2018 10:00:00 (CEST)
Date & Time tt [°C] td [°C] ff [km/h] ff [knt] fx [km/h] fx [knt] dd ppp [hPa] sd [min] rr [mm]
21.09.2018 10:00:00 15,5 11,9 22 12 36 20 WSW 1005,7 - 0,0
21.09.2018 09:00:00 14,7 13,9 22 12 42 23 WSW 1004,6 - 0,5
21.09.2018 08:00:00 15,0 14,2 36 19 61 33 WSW 1003,8 - 5,6
21.09.2018 07:00:00 18,6 15,6 19 11 54 29 SSW 1001,8 0 0,1
21.09.2018 06:00:00 19,7 14,8 18 10 43 23 SSW 1002,2 0 0,0
21.09.2018 05:00:00 19,9 14,5 18 10 41 22 S 1002,4 0 0,0
21.09.2018 04:00:00 20,0 14,6 16 9 39 21 SSW 1004,3 0 0,0
21.09.2018 03:00:00 20,3 15,1 17 9 36 20 SSW 1005,5 0 0,0
21.09.2018 02:00:00 21,0 14,9 14 8 40 21 SSW 1006,4 0 0,0
21.09.2018 01:00:00 21,5 15,0 16 9 39 21 S 1007,1 0 0,0
21.09.2018 00:00:00 21,6 14,9 14 8 33 18 SSW 1008,1 0 0,0
20.09.2018 23:00:00 21,6 15,0 12 7 31 17 S 1008,7 0 0,0
20.09.2018 22:00:00 21,8 15,1 13 7 33 18 S 1009,8 0 0,0
20.09.2018 21:00:00 22,3 15,2 13 7 34 18 SSW 1010,6 0 0,0
20.09.2018 20:00:00 22,8 15,1 7 4 32 17 S 1011,4 - 0,0
20.09.2018 19:00:00 23,4 15,2 11 6 30 16 SSW 1012,1 - 0,0
20.09.2018 18:00:00 23,6 15,3 15 8 35 19 S 1012,9 - 0,0
20.09.2018 17:00:00 24,1 15,2 16 9 38 21 SSW 1013,6 - 0,0
20.09.2018 16:00:00 24,2 15,9 15 8 31 17 SSW 1014,4 - 0,0
20.09.2018 15:00:00 24,0 15,9 13 7 31 17 SSW 1015,3 - 0,0
20.09.2018 14:00:00 22,9 15,7 14 8 32 17 SSW 1016,0 - 0,0
20.09.2018 13:00:00 21,8 16,0 14 8 33 18 SW 1016,4 - 0,0
20.09.2018 12:00:00 20,5 15,9 18 10 31 17 SW 1016,8 - 0,0
20.09.2018 11:00:00 19,6 15,9 16 8 26 14 SW 1017,0 - 0,0
20.09.2018 10:00:00 18,1 15,7 10 6 26 14 SW 1016,9 - 0,0
20.09.2018 09:00:00 17,3 15,3 10 6 22 12 SW 1017,0 - 0,0
20.09.2018 08:00:00 17,0 14,8 7 4 19 10 SSW 1016,7 - 0,0
20.09.2018 07:00:00 17,1 14,7 9 5 19 10 SSW 1016,7 0 0,0
20.09.2018 06:00:00 17,2 14,4 6 4 14 7 SSW 1016,8 0 0,0
20.09.2018 05:00:00 17,6 14,7 4 2 12 7 S 1017,3 0 0,0
20.09.2018 04:00:00 18,2 15,7 5 3 14 8 SSW 1016,9 0 0,0
20.09.2018 03:00:00 18,1 15,3 8 4 15 8 SW 1017,2 0 0,0
20.09.2018 02:00:00 18,1 15,0 11 6 16 9 SW 1017,5 0 0,0
20.09.2018 01:00:00 18,3 15,0 4 2 13 7 SSW 1017,8 0 0,0
20.09.2018 00:00:00 19,4 15,1 10 5 18 10 W 1018,1 0 0,0
19.09.2018 23:00:00 20,4 15,4 6 4 14 8 S 1017,8 0 0,0
19.09.2018 22:00:00 20,5 15,7 8 4 21 11 SW 1017,7 0 0,0
19.09.2018 21:00:00 20,8 15,5 8 4 18 10 SW 1017,6 - 0,0
19.09.2018 20:00:00 21,6 15,3 11 6 27 15 SW 1017,4 - 0,0
19.09.2018 19:00:00 22,5 15,5 16 9 30 16 SW 1017,3 - 0,0
19.09.2018 18:00:00 22,8 15,2 17 9 35 19 SW 1017,1 - 0,0
19.09.2018 17:00:00 23,5 15,0 21 11 41 22 SW 1017,2 - 0,0
19.09.2018 16:00:00 23,7 15,0 18 10 35 19 SW 1016,8 - 0,0
19.09.2018 15:00:00 23,5 14,9 18 10 36 19 SSW 1016,8 - 0,0
19.09.2018 14:00:00 23,5 15,2 14 8 35 19 SSW 1016,9 - 0,0
19.09.2018 13:00:00 22,8 14,8 18 10 39 21 SW 1017,1 - 0,0
19.09.2018 12:00:00 22,0 15,4 19 10 33 18 SW 1017,2 - 0,0
19.09.2018 11:00:00 20,3 15,9 14 8 26 14 SW 1017,1 - 0,0
19.09.2018 10:00:00 18,5 15,9 12 7 23 12 SW 1016,6 - 0,0
19.09.2018 09:00:00 17,2 15,5 11 6 26 14 SW 1016,3 - 0,0
19.09.2018 08:00:00 17,1 15,4 11 6 23 12 SSW 1015,7 - 0,0
19.09.2018 07:00:00 17,0 15,5 8 4 18 10 S 1015,3 0 0,0
19.09.2018 06:00:00 16,2 14,5 6 3 18 10 SSE 1015,6 0 0,0
19.09.2018 05:00:00 16,3 14,2 8 4 17 9 SE 1015,9 0 0,0
19.09.2018 04:00:00 16,1 14,0 5 3 13 7 E 1016,0 0 0,0
19.09.2018 03:00:00 16,8 14,7 7 4 13 7 S 1016,2 0 0,0
19.09.2018 02:00:00 16,8 14,5 4 2 12 6 S 1016,3 0 0,0
19.09.2018 01:00:00 16,8 14,1 5 3 11 6 ESE 1016,3 0 0,0
19.09.2018 00:00:00 17,0 14,3 6 4 12 6 SW 1016,1 0 0,0
18.09.2018 23:00:00 17,4 14,4 7 4 11 6 SW 1016,0 0 0,0
18.09.2018 22:00:00 17,9 14,2 7 4 18 10 WSW 1016,2 0 0,0
18.09.2018 21:00:00 19,2 14,7 14 8 26 14 WSW 1016,0 - 0,0
18.09.2018 20:00:00 20,6 15,0 14 8 24 13 WSW 1015,3 - 0,0
18.09.2018 19:00:00 21,0 14,6 19 10 40 22 WSW 1014,7 - 0,0
18.09.2018 18:00:00 23,1 14,8 26 14 45 24 WSW 1014,5 - 0,0
18.09.2018 17:00:00 24,0 14,1 26 14 49 26 WSW 1014,0 - 0,0
18.09.2018 16:00:00 24,4 15,0 26 14 50 27 SW 1013,6 - 0,0
18.09.2018 15:00:00 24,2 15,5 22 12 50 27 SW 1013,4 - 0,0
18.09.2018 14:00:00 23,8 15,9 22 12 43 23 SW 1013,0 - 0,0
18.09.2018 13:00:00 23,1 15,8 23 12 41 22 SW 1012,9 - 0,0
18.09.2018 12:00:00 22,6 16,4 19 10 32 18 SW 1012,5 - 0,0
18.09.2018 11:00:00 21,7 16,1 16 9 29 16 SW 1012,1 - 0,0
18.09.2018 10:00:00 20,2 14,5 13 7 27 14 SW 1011,6 - 0,0
18.09.2018 09:00:00 19,5 12,6 13 7 27 15 SW 1011,3 - 0,0
18.09.2018 08:00:00 19,3 11,2 11 6 23 13 S 1010,5 - 0,0
18.09.2018 07:00:00 19,3 11,1 10 5 24 13 S 1010,0 0 0,0
18.09.2018 06:00:00 18,4 10,2 8 4 19 10 SE 1009,7 0 0,0
18.09.2018 05:00:00 18,3 9,5 8 4 20 11 SE 1010,2 0 0,0
18.09.2018 04:00:00 17,9 9,2 8 4 23 12 SE 1010,6 0 0,0
18.09.2018 03:00:00 18,2 9,3 9 5 22 12 SE 1011,2 0 0,0
18.09.2018 02:00:00 18,6 9,2 11 6 22 12 SE 1012,0 0 0,0
18.09.2018 01:00:00 19,7 9,3 13 7 25 13 SE 1012,4 0 0,0
18.09.2018 00:00:00 19,8 9,9 11 6 23 12 ESE 1013,0 0 0,0
17.09.2018 23:00:00 20,0 10,4 8 5 17 9 ESE 1013,6 0 0,0
17.09.2018 22:00:00 20,3 10,4 5 3 12 6 E 1014,1 0 0,0
17.09.2018 21:00:00 21,6 10,5 5 3 13 7 E 1014,5 - 0,0
17.09.2018 20:00:00 22,8 11,0 4 2 22 12 SE 1014,9 - 0,0
17.09.2018 19:00:00 24,9 10,0 10 5 26 14 S 1015,2 - 0,0
17.09.2018 18:00:00 25,8 10,6 8 4 19 10 S 1015,8 - 0,0
17.09.2018 17:00:00 26,0 10,8 9 5 21 11 S 1016,6 - 0,0
17.09.2018 16:00:00 25,8 10,7 10 6 22 12 SW 1017,3 - 0,0
17.09.2018 15:00:00 25,0 12,0 11 6 21 11 SW 1018,0 - 0,0
17.09.2018 14:00:00 24,2 12,7 11 6 19 10 SW 1018,5 - 0,0
17.09.2018 13:00:00 22,8 12,8 10 6 18 10 SW 1019,0 - 0,0
17.09.2018 12:00:00 21,5 12,8 8 5 15 8 SSW 1019,7 - 0,0
17.09.2018 11:00:00 18,3 12,9 6 3 11 6 SW 1019,7 - 0,0
17.09.2018 10:00:00 16,0 12,0 5 3 10 5 SSW 1019,7 - 0,0
17.09.2018 09:00:00 14,6 11,0 4 2 8 5 SSW 1019,8 - 0,0
17.09.2018 08:00:00 13,1 10,6 4 2 6 3 SSE 1019,6 - 0,0
17.09.2018 07:00:00 14,4 10,7 4 2 9 5 SSW 1019,3 0 0,0
17.09.2018 06:00:00 14,7 10,8 5 3 12 7 S 1018,8 0 0,0
17.09.2018 05:00:00 14,5 10,6 5 3 10 5 S 1019,4 0 0,0
17.09.2018 04:00:00 14,7 11,2 6 3 8 5 SW 1019,7 0 0,0
17.09.2018 03:00:00 14,8 11,1 6 3 11 6 SSW 1019,5 0 0,0
17.09.2018 02:00:00 14,2 12,3 4 2 7 4 WSW 1020,1 0 0,0
17.09.2018 01:00:00 14,9 11,6 4 2 10 6 WSW 1020,1 0 0,0
17.09.2018 00:00:00 16,5 11,8 6 3 10 6 SW 1020,0 0 0,0
16.09.2018 23:00:00 16,8 11,6 6 3 10 6 SSW 1020,1 0 0,0
16.09.2018 22:00:00 17,4 11,9 4 2 9 5 SW 1020,5 0 0,0
16.09.2018 21:00:00 18,4 12,0 6 3 14 7 SW 1020,2 - 0,0
16.09.2018 20:00:00 20,9 11,9 7 4 17 9 SW 1020,2 - 0,0
16.09.2018 19:00:00 22,7 12,3 8 4 23 12 SW 1019,6 - 0,0
16.09.2018 18:00:00 22,6 12,4 8 5 22 12 SW 1019,8 - 0,0
16.09.2018 17:00:00 22,6 11,7 9 5 21 11 SSW 1020,0 - 0,0
16.09.2018 16:00:00 22,2 11,6 9 5 21 12 SW 1020,5 - 0,0
16.09.2018 15:00:00 22,0 12,3 10 6 21 12 SW 1021,0 - 0,0
16.09.2018 14:00:00 22,1 12,3 11 6 23 12 SSW 1021,7 - 0,0
16.09.2018 13:00:00 22,2 12,8 11 6 22 12 SSW 1022,2 - -
16.09.2018 12:00:00 20,1 13,3 10 5 23 12 SSW 1022,5 - 0,0
16.09.2018 11:00:00 18,0 12,2 10 5 23 13 SSW 1022,7 - 0,0
16.09.2018 10:00:00 15,2 12,1 7 4 13 7 SW 1022,7 - 0,0
16.09.2018 09:00:00 14,1 11,8 4 2 13 7 SSW 1022,5 - 0,0
16.09.2018 08:00:00 12,6 11,4 4 2 - - SSW 1022,6 - -
16.09.2018 07:00:00 12,0 11,0 4 2 7 4 SE 1022,5 0 0,0
16.09.2018 06:00:00 12,4 11,3 4 2 8 4 ESE 1022,6 0 0,0
16.09.2018 05:00:00 12,9 11,7 4 2 5 3 SE 1022,7 0 0,0
16.09.2018 04:00:00 13,2 11,7 4 2 8 5 E 1023,0 0 0,0
16.09.2018 03:00:00 13,7 12,0 0 0 6 4 N 1023,8 0 0,0
16.09.2018 02:00:00 13,9 12,0 4 2 6 3 S 1024,4 0 0,0
16.09.2018 01:00:00 13,7 11,7 4 2 10 6 ESE 1025,1 0 0,0
16.09.2018 00:00:00 13,5 12,0 0 0 4 2 N 1025,2 0 0,0
15.09.2018 23:00:00 14,3 12,2 4 2 6 3 ESE 1025,1 0 0,0
15.09.2018 22:00:00 14,4 11,7 4 2 6 3 E 1025,2 0 0,0
15.09.2018 21:00:00 15,2 11,8 4 2 6 3 ENE 1025,2 - 0,0
15.09.2018 20:00:00 17,1 12,3 4 2 12 7 N 1024,8 - 0,0
15.09.2018 19:00:00 18,4 11,2 9 5 16 9 NW 1024,7 - 0,0
15.09.2018 18:00:00 20,0 11,1 11 6 21 11 WNW 1024,8 - 0,0
15.09.2018 17:00:00 20,0 11,0 10 5 23 12 NW 1024,9 - 0,0
15.09.2018 16:00:00 19,6 11,0 16 8 25 14 W 1025,3 - 0,0
15.09.2018 15:00:00 18,5 13,6 10 6 20 11 NW 1025,3 - 0,0
15.09.2018 14:00:00 18,6 12,1 14 8 24 13 W 1025,5 - 0,0
15.09.2018 13:00:00 17,9 12,8 16 8 22 12 W 1025,4 - 0,0
15.09.2018 12:00:00 17,4 13,5 9 5 18 10 WSW 1025,5 - 0,0
15.09.2018 11:00:00 16,9 13,5 8 5 15 8 SW 1025,2 - 0,0
15.09.2018 10:00:00 14,0 13,3 9 5 15 8 SW 1024,8 - 0,0

tt = Température de l'air
td = dewpoint
ff = Vitesse du vent
fx = gusts
dd = Direction du vent
ppp = reduced air pressure
sd = Ensoleillement
rr = Quantités de précipitations

stations d'obs. à proximité